createdAt,value
2018-04-30T00:00:38.931Z,99.90
2018-04-30T00:03:48.243Z,99.90
2018-04-30T00:06:58.424Z,97.30
2018-04-30T00:10:10.056Z,97.30
2018-04-30T00:13:19.395Z,99.20
2018-04-30T00:16:29.576Z,99.90
2018-04-30T00:19:39.356Z,97.70
2018-04-30T00:22:49.428Z,98.50
2018-04-30T00:25:59.533Z,99.60
2018-04-30T00:29:09.299Z,99.90
2018-04-30T00:32:19.391Z,99.90
2018-04-30T00:35:30.437Z,99.90
2018-04-30T00:38:40.221Z,99.90
2018-04-30T00:41:49.572Z,99.90
2018-04-30T00:45:00.152Z,99.90
2018-04-30T00:48:13.688Z,99.90
2018-04-30T00:51:23.848Z,99.90
2018-04-30T00:55:00.313Z,99.90
2018-04-30T00:58:10.264Z,99.90
2018-04-30T01:01:20.449Z,99.90
2018-04-30T01:04:30.568Z,99.90
2018-04-30T01:07:39.916Z,99.90
2018-04-30T01:10:49.281Z,99.90
2018-04-30T01:13:58.772Z,99.90
2018-04-30T01:17:12.138Z,99.90
2018-04-30T01:20:21.616Z,99.90
2018-04-30T01:23:31.672Z,99.90
2018-04-30T01:26:41.048Z,99.90
2018-04-30T01:29:50.355Z,99.90
2018-04-30T01:33:00.112Z,99.90
2018-04-30T01:36:09.957Z,99.90
2018-04-30T01:39:20.072Z,99.90
2018-04-30T01:42:29.440Z,99.90
2018-04-30T01:45:39.569Z,99.90
2018-04-30T01:48:48.832Z,99.90
2018-04-30T01:51:59.284Z,99.90
2018-04-30T01:55:08.657Z,99.90
2018-04-30T01:58:18.969Z,99.90
2018-04-30T02:01:28.409Z,99.90
2018-04-30T02:04:38.648Z,99.90
2018-04-30T02:07:49.749Z,99.90
2018-04-30T02:10:59.212Z,99.90
2018-04-30T02:14:08.508Z,99.90
2018-04-30T02:17:18.581Z,99.90
2018-04-30T02:20:28.372Z,99.90
2018-04-30T02:23:38.235Z,99.90
2018-04-30T02:26:48.299Z,99.90
2018-04-30T02:29:57.779Z,99.90
2018-04-30T02:33:07.236Z,99.90
2018-04-30T02:36:17.077Z,99.90
2018-04-30T02:39:27.168Z,99.90
2018-04-30T02:42:36.480Z,99.90
2018-04-30T02:45:46.604Z,99.90
2018-04-30T02:48:57.413Z,99.90
2018-04-30T02:52:07.837Z,99.90
2018-04-30T02:55:17.924Z,99.90
2018-04-30T02:58:27.215Z,99.90
2018-04-30T03:01:36.529Z,99.90
2018-04-30T03:04:45.843Z,99.90
2018-04-30T03:07:55.263Z,99.90
2018-04-30T03:11:04.532Z,99.90
2018-04-30T03:14:14.300Z,99.90
2018-04-30T03:17:23.615Z,99.90
2018-04-30T03:20:33.460Z,99.90
2018-04-30T03:23:43.681Z,99.90
2018-04-30T03:26:53.817Z,99.90
2018-04-30T03:30:03.192Z,99.90
2018-04-30T03:33:13.896Z,99.90
2018-04-30T03:36:23.234Z,99.90
2018-04-30T03:39:33.155Z,99.90
2018-04-30T03:42:42.837Z,99.90
2018-04-30T03:45:52.144Z,99.90
2018-04-30T03:49:03.119Z,99.90
2018-04-30T03:52:13.908Z,99.90
2018-04-30T03:55:24.248Z,99.90
2018-04-30T03:58:34.489Z,99.90
2018-04-30T04:02:01.603Z,99.90
2018-04-30T04:05:28.789Z,99.90
2018-04-30T04:08:38.239Z,99.90
2018-04-30T04:11:47.984Z,99.90
2018-04-30T04:14:57.264Z,99.90
2018-04-30T04:18:07.494Z,99.90
2018-04-30T04:21:16.943Z,99.90
2018-04-30T04:24:26.359Z,99.90
2018-04-30T04:27:36.083Z,99.90
2018-04-30T04:30:45.801Z,99.90
2018-04-30T04:33:55.140Z,99.90
2018-04-30T04:37:05.265Z,99.90
2018-04-30T04:40:14.676Z,99.90
2018-04-30T04:43:24.860Z,99.90
2018-04-30T04:46:34.579Z,99.90
2018-04-30T04:49:43.845Z,99.90
2018-04-30T04:52:53.231Z,99.90
2018-04-30T04:56:02.533Z,99.90
2018-04-30T04:59:11.943Z,99.90
2018-04-30T05:02:22.114Z,99.90
2018-04-30T05:05:32.070Z,99.90
2018-04-30T05:08:42.072Z,99.90
2018-04-30T05:11:51.499Z,99.90
2018-04-30T05:15:00.915Z,99.90
2018-04-30T05:18:10.224Z,99.90
2018-04-30T05:21:19.688Z,99.90
2018-04-30T05:24:29.251Z,99.90
2018-04-30T05:27:39.324Z,99.90
2018-04-30T05:30:49.516Z,99.90
2018-04-30T05:33:59.676Z,99.90
2018-04-30T05:37:09.819Z,99.90
2018-04-30T05:40:19.984Z,99.90
2018-04-30T05:43:30.107Z,99.90
2018-04-30T05:46:40.193Z,99.90
2018-04-30T05:49:49.572Z,99.90
2018-04-30T05:52:58.924Z,99.90
2018-04-30T05:56:09.128Z,99.90
2018-04-30T05:59:19.271Z,99.90
2018-04-30T06:02:28.987Z,99.90
2018-04-30T06:05:39.042Z,99.90
2018-04-30T06:08:49.272Z,99.90
2018-04-30T06:11:58.712Z,99.90
2018-04-30T06:15:08.749Z,99.90
2018-04-30T06:18:17.983Z,99.90
2018-04-30T06:21:27.437Z,99.90
2018-04-30T06:24:37.487Z,99.90
2018-04-30T06:27:48.599Z,99.90
2018-04-30T06:31:03.341Z,99.90
2018-04-30T06:34:13.392Z,99.90
2018-04-30T06:37:23.159Z,99.90
2018-04-30T06:40:32.474Z,99.90
2018-04-30T06:43:41.954Z,99.90
2018-04-30T06:46:52.039Z,99.90
2018-04-30T06:50:05.799Z,99.90
2018-04-30T06:53:15.875Z,99.90
2018-04-30T06:56:25.267Z,99.90
2018-04-30T06:59:35.399Z,99.90
2018-04-30T07:02:44.793Z,99.90
2018-04-30T07:05:54.858Z,99.90
2018-04-30T07:09:04.207Z,99.90
2018-04-30T07:12:14.295Z,99.90
2018-04-30T07:15:23.685Z,99.90
2018-04-30T07:18:33.751Z,99.90
2018-04-30T07:21:43.719Z,99.90
2018-04-30T07:24:53.144Z,99.90
2018-04-30T07:28:03.369Z,99.90
2018-04-30T07:31:13.293Z,99.90
2018-04-30T07:34:23.364Z,99.90
2018-04-30T07:37:33.666Z,99.90
2018-04-30T07:40:43.687Z,99.90
2018-04-30T07:43:53.796Z,99.90
2018-04-30T07:47:03.515Z,99.90
2018-04-30T07:50:13.015Z,99.90
2018-04-30T07:53:22.564Z,99.90
2018-04-30T07:56:31.845Z,99.90
2018-04-30T07:59:41.303Z,99.90
2018-04-30T08:02:50.763Z,99.90
2018-04-30T08:06:00.221Z,99.90
2018-04-30T08:09:09.655Z,99.90
2018-04-30T08:12:19.017Z,99.90
2018-04-30T08:15:28.884Z,99.90
2018-04-30T08:18:38.679Z,99.90
2018-04-30T08:21:48.879Z,99.90
2018-04-30T08:24:58.257Z,99.90
2018-04-30T08:28:08.295Z,99.90
2018-04-30T08:31:17.708Z,99.90
2018-04-30T08:34:28.007Z,99.90
2018-04-30T08:37:38.094Z,99.90
2018-04-30T08:40:47.875Z,99.90
2018-04-30T08:43:57.227Z,99.90
2018-04-30T08:47:07.420Z,99.90
2018-04-30T08:50:17.643Z,99.90
2018-04-30T08:53:27.064Z,99.90
2018-04-30T08:56:37.961Z,99.90
2018-04-30T08:59:48.053Z,99.90
2018-04-30T09:02:57.379Z,99.90
2018-04-30T09:06:07.491Z,99.90
2018-04-30T09:09:16.931Z,99.90
2018-04-30T09:12:26.391Z,99.90
2018-04-30T09:15:36.095Z,99.90
2018-04-30T09:18:46.277Z,99.90
2018-04-30T09:21:55.664Z,99.90
2018-04-30T09:25:05.950Z,99.90
2018-04-30T09:28:15.325Z,99.90
2018-04-30T09:31:24.769Z,99.90
2018-04-30T09:34:34.201Z,99.90
2018-04-30T09:37:43.423Z,99.90
2018-04-30T09:40:52.872Z,99.90
2018-04-30T09:44:02.354Z,99.90
2018-04-30T09:47:12.057Z,99.90
2018-04-30T09:50:21.399Z,99.90
2018-04-30T09:53:31.208Z,99.90
2018-04-30T09:56:40.609Z,99.90
2018-04-30T09:59:49.926Z,99.90
2018-04-30T10:02:59.227Z,99.90
2018-04-30T10:06:08.552Z,99.90
2018-04-30T10:09:18.514Z,99.90
2018-04-30T10:12:27.909Z,99.90
2018-04-30T10:15:37.561Z,99.90
2018-04-30T10:18:46.837Z,99.90
2018-04-30T10:21:56.579Z,99.90
2018-04-30T10:25:07.283Z,99.90
2018-04-30T10:28:17.119Z,99.90
2018-04-30T10:31:26.965Z,99.90
2018-04-30T10:34:37.220Z,99.90
2018-04-30T10:37:47.430Z,99.90
2018-04-30T10:40:57.094Z,99.90
2018-04-30T10:44:06.392Z,99.90
2018-04-30T10:47:16.077Z,99.90
2018-04-30T10:50:25.418Z,99.90
2018-04-30T10:53:35.576Z,99.90
2018-04-30T10:56:45.090Z,99.90
2018-04-30T10:59:54.966Z,99.90
2018-04-30T11:03:04.710Z,99.90
2018-04-30T11:06:14.830Z,99.90
2018-04-30T11:09:24.864Z,99.90
2018-04-30T11:12:34.888Z,99.90
2018-04-30T11:15:44.991Z,99.90
2018-04-30T11:18:54.892Z,98.40
2018-04-30T11:22:04.371Z,99.90
2018-04-30T11:25:13.828Z,99.90
2018-04-30T11:28:24.074Z,95.00
2018-04-30T11:31:33.932Z,95.60
2018-04-30T11:34:43.619Z,93.20
2018-04-30T11:37:52.913Z,97.00
2018-04-30T11:41:02.299Z,96.10
2018-04-30T11:44:12.084Z,95.00
2018-04-30T11:47:21.676Z,96.00
2018-04-30T11:50:31.876Z,93.80
2018-04-30T11:53:42.005Z,92.00
2018-04-30T11:56:51.505Z,95.70
2018-04-30T12:00:00.837Z,97.90
2018-04-30T12:03:10.239Z,98.20
2018-04-30T12:06:20.496Z,93.40
2018-04-30T12:09:30.688Z,93.60
2018-04-30T12:12:40.893Z,92.70
2018-04-30T12:15:50.742Z,91.30
2018-04-30T12:19:00.517Z,95.40
2018-04-30T12:22:10.771Z,91.00
2018-04-30T12:25:20.320Z,90.10
2018-04-30T12:28:29.666Z,93.90
2018-04-30T12:31:39.369Z,94.30
2018-04-30T12:34:48.688Z,94.70
2018-04-30T12:37:57.936Z,93.70
2018-04-30T12:41:07.323Z,91.00
2018-04-30T12:44:17.514Z,86.90
2018-04-30T12:47:28.917Z,85.90
2018-04-30T12:50:38.383Z,92.30
2018-04-30T12:53:48.436Z,86.00
2018-04-30T12:56:58.571Z,84.00
2018-04-30T13:00:07.953Z,91.40
2018-04-30T13:03:17.405Z,88.00
2018-04-30T13:06:26.832Z,90.30
2018-04-30T13:09:36.566Z,82.10
2018-04-30T13:12:46.364Z,83.80
2018-04-30T13:15:56.127Z,80.70
2018-04-30T13:19:06.221Z,80.80
2018-04-30T13:22:16.340Z,82.80
2018-04-30T13:25:27.173Z,82.60
2018-04-30T13:28:37.313Z,83.70
2018-04-30T13:31:47.504Z,83.80
2018-04-30T13:34:56.923Z,91.60
2018-04-30T13:38:06.203Z,92.60
2018-04-30T13:41:16.047Z,86.00
2018-04-30T13:44:26.196Z,85.80
2018-04-30T13:47:36.286Z,82.60
2018-04-30T13:50:46.140Z,85.10
2018-04-30T13:53:55.475Z,92.70
2018-04-30T13:57:06.585Z,87.20
2018-04-30T14:00:16.876Z,88.60
2018-04-30T14:03:26.324Z,96.10
2018-04-30T14:06:36.129Z,96.20
2018-04-30T14:09:46.365Z,97.70
2018-04-30T14:12:55.728Z,99.90
2018-04-30T14:16:05.179Z,99.90
2018-04-30T14:19:14.629Z,99.90
2018-04-30T14:22:24.460Z,94.80
2018-04-30T14:25:33.784Z,99.90
2018-04-30T14:28:43.285Z,99.90
2018-04-30T14:31:53.405Z,95.30
2018-04-30T14:35:03.020Z,99.90
2018-04-30T14:38:13.072Z,97.80
2018-04-30T14:41:22.313Z,97.90
2018-04-30T14:44:31.931Z,95.00
2018-04-30T14:47:41.199Z,92.30
2018-04-30T14:50:55.180Z,85.10
2018-04-30T14:54:04.892Z,82.10
2018-04-30T14:57:15.221Z,92.70
2018-04-30T15:00:24.941Z,84.60
2018-04-30T15:03:35.140Z,86.80
2018-04-30T15:06:44.977Z,84.40
2018-04-30T15:09:54.388Z,94.00
2018-04-30T15:13:03.852Z,92.60
2018-04-30T15:16:13.933Z,86.20
2018-04-30T15:19:24.198Z,83.50
2018-04-30T15:22:33.673Z,91.80
2018-04-30T15:25:43.980Z,82.30
2018-04-30T15:28:53.998Z,81.90
2018-04-30T15:32:03.692Z,82.80
2018-04-30T15:35:13.432Z,79.30
2018-04-30T15:38:22.890Z,90.20
2018-04-30T15:41:32.884Z,83.00
2018-04-30T15:44:42.235Z,88.40
2018-04-30T15:47:52.044Z,86.00
2018-04-30T15:51:01.484Z,92.70
2018-04-30T15:54:12.771Z,88.10
2018-04-30T15:57:23.001Z,94.00
2018-04-30T16:00:32.727Z,91.30
2018-04-30T16:03:42.077Z,95.80
2018-04-30T16:06:51.769Z,92.70
2018-04-30T16:10:01.269Z,96.30
2018-04-30T16:13:10.741Z,96.10
2018-04-30T16:16:20.200Z,94.80
2018-04-30T16:19:29.580Z,95.00
2018-04-30T16:22:39.798Z,90.60
2018-04-30T16:25:49.119Z,94.60
2018-04-30T16:28:58.528Z,93.20
2018-04-30T16:32:07.985Z,90.90
2018-04-30T16:35:18.290Z,88.90
2018-04-30T16:38:28.462Z,86.70
2018-04-30T16:41:39.335Z,88.00
2018-04-30T16:44:49.509Z,88.20
2018-04-30T16:47:59.284Z,89.40
2018-04-30T16:51:08.602Z,94.80
2018-04-30T16:54:18.010Z,95.00
2018-04-30T16:57:27.875Z,90.20
2018-04-30T17:00:38.160Z,90.30
2018-04-30T17:03:48.419Z,89.70
2018-04-30T17:06:57.848Z,90.50
2018-04-30T17:10:07.927Z,85.40
2018-04-30T17:13:17.245Z,92.10
2018-04-30T17:16:27.313Z,90.30
2018-04-30T17:19:38.497Z,90.70
2018-04-30T17:22:47.822Z,94.90
2018-04-30T17:25:58.069Z,90.20
2018-04-30T17:29:08.160Z,90.30
2018-04-30T17:32:17.969Z,91.10
2018-04-30T17:35:28.721Z,90.70
2018-04-30T17:38:38.520Z,90.80
2018-04-30T17:41:48.284Z,91.90
2018-04-30T17:44:57.605Z,95.60
2018-04-30T17:48:07.180Z,92.40
2018-04-30T17:51:18.119Z,87.50
2018-04-30T17:54:28.261Z,87.50
2018-04-30T17:57:38.748Z,86.80
2018-04-30T18:00:52.018Z,90.90
2018-04-30T18:04:02.216Z,84.90
2018-04-30T18:07:11.598Z,91.40
2018-04-30T18:10:21.651Z,81.00
2018-04-30T18:13:31.435Z,82.10
2018-04-30T18:16:40.898Z,87.90
2018-04-30T18:19:51.111Z,83.90
2018-04-30T18:23:01.212Z,85.00
2018-04-30T18:26:11.262Z,85.40
2018-04-30T18:29:20.645Z,92.80
2018-04-30T18:32:30.100Z,93.40
2018-04-30T18:35:39.494Z,93.40
2018-04-30T18:38:48.845Z,93.30
2018-04-30T18:41:59.802Z,85.10
2018-04-30T18:45:09.867Z,93.40
2018-04-30T18:48:19.249Z,93.00
2018-04-30T18:51:28.773Z,93.60
2018-04-30T18:54:38.615Z,86.70
2018-04-30T18:57:48.654Z,88.00
2018-04-30T19:00:57.961Z,93.60
2018-04-30T19:04:07.243Z,94.60
2018-04-30T19:07:16.583Z,92.30
2018-04-30T19:10:26.823Z,89.10
2018-04-30T19:13:36.127Z,92.10
2018-04-30T19:16:47.040Z,86.50
2018-04-30T19:19:57.276Z,86.30
2018-04-30T19:23:07.352Z,88.30
2018-04-30T19:26:16.683Z,94.90
2018-04-30T19:29:26.744Z,89.70
2018-04-30T19:32:36.051Z,94.90
2018-04-30T19:35:45.968Z,90.30
2018-04-30T19:38:56.159Z,90.60
2018-04-30T19:42:06.097Z,92.30
2018-04-30T19:45:15.883Z,91.40
2018-04-30T19:48:25.205Z,97.00
2018-04-30T19:51:34.543Z,95.60
2018-04-30T19:54:44.033Z,97.50
2018-04-30T19:57:53.517Z,97.50
2018-04-30T20:01:02.929Z,97.70
2018-04-30T20:04:13.051Z,92.20
2018-04-30T20:07:22.691Z,97.30
2018-04-30T20:10:32.565Z,91.40
2018-04-30T20:13:42.347Z,90.90
2018-04-30T20:16:51.713Z,96.50
2018-04-30T20:20:01.020Z,95.70
2018-04-30T20:23:11.431Z,90.50
2018-04-30T20:26:21.626Z,92.30
2018-04-30T20:29:31.787Z,99.20
2018-04-30T20:32:42.099Z,94.90
2018-04-30T20:35:52.047Z,95.70
2018-04-30T20:39:01.504Z,99.90
2018-04-30T20:42:11.187Z,99.90
2018-04-30T20:45:21.405Z,99.90
2018-04-30T20:48:30.766Z,99.90
2018-04-30T20:51:40.847Z,99.90
2018-04-30T20:54:50.481Z,99.90
2018-04-30T20:58:00.161Z,99.90
2018-04-30T21:01:09.632Z,99.90
2018-04-30T21:04:19.040Z,99.90
2018-04-30T21:07:28.440Z,99.90
2018-04-30T21:10:38.204Z,99.90
2018-04-30T21:13:47.921Z,99.90
2018-04-30T21:16:57.347Z,99.90
2018-04-30T21:20:07.576Z,99.90
2018-04-30T21:23:16.945Z,99.90
2018-04-30T21:26:26.297Z,99.90
2018-04-30T21:29:35.745Z,99.90
2018-04-30T21:32:45.435Z,99.90
2018-04-30T21:35:55.697Z,99.90
2018-04-30T21:39:05.138Z,99.90
2018-04-30T21:42:14.390Z,99.90
2018-04-30T21:45:24.143Z,99.90
2018-04-30T21:48:34.411Z,99.90
2018-04-30T21:51:43.758Z,99.90
2018-04-30T21:54:53.657Z,99.90
2018-04-30T21:58:03.873Z,99.90
2018-04-30T22:01:14.072Z,99.90
2018-04-30T22:04:23.276Z,99.90
2018-04-30T22:07:32.692Z,99.90
2018-04-30T22:10:42.107Z,99.90
2018-04-30T22:13:52.665Z,99.90
2018-04-30T22:17:02.688Z,99.90
2018-04-30T22:20:12.104Z,99.90
2018-04-30T22:23:21.484Z,99.90
2018-04-30T22:26:31.568Z,99.90
2018-04-30T22:29:41.381Z,99.90
2018-04-30T22:32:50.676Z,99.90
2018-04-30T22:36:00.964Z,99.90
2018-04-30T22:39:11.481Z,99.90
2018-04-30T22:42:20.872Z,99.90
2018-04-30T22:45:30.538Z,99.90
2018-04-30T22:48:40.337Z,99.90
2018-04-30T22:51:50.559Z,99.90
2018-04-30T22:55:01.052Z,99.90
2018-04-30T22:58:10.765Z,99.90
2018-04-30T23:01:21.020Z,99.90
2018-04-30T23:04:30.879Z,99.90
2018-04-30T23:07:40.995Z,99.90
2018-04-30T23:10:51.849Z,99.90
2018-04-30T23:14:01.164Z,99.90
2018-04-30T23:17:10.470Z,99.90
2018-04-30T23:20:20.271Z,99.90
2018-04-30T23:23:30.006Z,99.90
2018-04-30T23:26:39.452Z,99.90
2018-04-30T23:29:49.295Z,99.90
2018-04-30T23:36:09.674Z,99.90
2018-04-30T23:39:18.987Z,99.90
2018-04-30T23:42:28.469Z,99.90
2018-04-30T23:45:38.740Z,99.90
2018-04-30T23:48:48.115Z,99.90
2018-04-30T23:51:57.596Z,99.90
2018-04-30T23:55:06.981Z,99.90
2018-04-30T23:58:16.392Z,99.90
